Time;durP1;ratioP1;P1;durP2;ratioP2;P2;SDS_P1;SDS_P2;PMS_P1;PMS_P2;Temp;Humidity;BMP_temperature;BMP_pressure;BME280_temperature;BME280_humidity;BME280_pressure;Samples;Min_cycle;Max_cycle;Signal;HPM_P1;HPM_P2
2021/07/08 00:01:58;;;;;;;6.50;3.00;;;19.40;97.30;;;;;;4997542;28;20201;-87
2021/07/08 00:04:24;;;;;;;3.97;2.90;;;19.30;97.30;;;;;;4998143;28;20181;-87
2021/07/08 00:06:49;;;;;;;3.43;3.20;;;19.30;97.30;;;;;;4999366;28;20200;-87
2021/07/08 00:09:15;;;;;;;4.90;2.80;;;19.30;97.30;;;;;;4999154;28;20173;-87
2021/07/08 00:11:41;;;;;;;3.70;3.17;;;19.30;97.30;;;;;;4999109;28;20173;-87
2021/07/08 00:14:07;;;;;;;4.20;3.27;;;19.20;97.30;;;;;;4998967;28;20180;-87
2021/07/08 00:16:35;;;;;;;4.50;2.87;;;19.20;97.30;;;;;;4998421;28;20651;-87
2021/07/08 00:19:00;;;;;;;5.97;3.10;;;19.20;97.30;;;;;;4998593;28;20435;-87
2021/07/08 00:21:26;;;;;;;6.80;3.50;;;19.20;97.30;;;;;;4997177;28;20424;-88
2021/07/08 01:03:47;;;;;;;7.20;4.33;;;19.00;97.30;;;;;;5217805;22;20441;31
2021/07/08 01:06:18;;;;;;;5.87;3.40;;;19.00;97.30;;;;;;4979606;28;20477;-91
2021/07/08 01:09:04;;;;;;;5.80;4.00;;;19.00;97.30;;;;;;4981847;28;20406;-91
2021/07/08 01:15:12;;;;;;;8.17;4.00;;;18.90;97.30;;;;;;4957216;28;20828;-91
2021/07/08 01:17:51;;;;;;;7.03;3.50;;;18.90;97.30;;;;;;4957363;28;20465;-92
2021/07/08 01:23:58;;;;;;;7.10;3.70;;;18.80;97.30;;;;;;4993495;22;20498;-91
2021/07/08 01:27:00;;;;;;;8.10;4.50;;;18.70;97.30;;;;;;5019153;28;20459;-91
2021/07/08 01:29:57;;;;;;;6.10;4.47;;;18.70;97.30;;;;;;5016277;28;20411;-91
2021/07/08 01:35:27;;;;;;;6.40;3.97;;;18.60;97.30;;;;;;5012812;28;20559;-91
2021/07/08 01:38:22;;;;;;;8.90;3.40;;;18.60;97.30;;;;;;4998136;28;20412;-90
2021/07/08 01:47:33;;;;;;;6.40;4.30;;;18.70;97.30;;;;;;5181881;22;20482;-91
2021/07/08 01:50:34;;;;;;;;;;;;;;;;;;;;;
2021/07/08 02:00:53;;;;;;;;;;;;;;;;;;;;;
2021/07/08 02:07:01;;;;;;;6.03;4.20;;;18.60;97.30;;;;;;4900356;29;20541;-91
2021/07/08 02:09:39;;;;;;;7.30;4.20;;;18.70;97.30;;;;;;4886565;29;20498;-92
2021/07/08 02:12:57;;;;;;;6.17;4.53;;;18.70;97.30;;;;;;4920049;29;20434;-91
2021/07/08 02:15:59;;;;;;;11.20;4.57;;;18.70;97.30;;;;;;4863023;29;20419;-91
2021/07/08 02:18:47;;;;;;;9.40;4.83;;;18.70;97.30;;;;;;4924694;28;20451;-91
2021/07/08 02:21:52;;;;;;;6.27;4.83;;;18.70;97.30;;;;;;4995957;28;20440;-91
2021/07/08 02:24:45;;;;;;;8.20;4.83;;;18.70;97.30;;;;;;4999286;28;20450;-91
2021/07/08 02:27:46;;;;;;;;;;;;;;;;;;;;;
2021/07/08 02:31:09;;;;;;;;;;;;;;;;;;;;;
2021/07/08 02:58:48;;;;;;;8.30;4.80;;;18.50;97.30;;;;;;4580618;22;20477;31
2021/07/08 03:01:23;;;;;;;10.83;5.20;;;18.50;97.30;;;;;;4978415;28;21052;-91
2021/07/08 03:10:57;;;;;;;9.50;5.17;;;18.40;97.30;;;;;;4912057;28;20505;-92
2021/07/08 03:27:07;;;;;;;;;;;;;;;;;;;;;
2021/07/08 03:30:22;;;;;;;;;;;;;;;;;;;;;
2021/07/08 03:39:34;;;;;;;21.20;6.00;;;18.30;97.30;;;;;;4934729;29;20807;-91
2021/07/08 05:14:08;;;;;;;11.83;6.43;;;18.80;97.30;;;;;;5000989;28;20488;-83
2021/07/08 05:16:36;;;;;;;9.60;6.47;;;18.80;97.30;;;;;;4996403;28;20847;-83
2021/07/08 05:22:24;;;;;;;12.13;6.77;;;18.80;97.30;;;;;;4981493;28;20472;-83
2021/07/08 05:24:50;;;;;;;15.77;7.43;;;18.80;97.30;;;;;;4965377;28;20424;-83
2021/07/08 05:27:16;;;;;;;10.90;6.30;;;18.80;97.30;;;;;;4965125;28;20479;-83
2021/07/08 05:29:43;;;;;;;21.27;7.30;;;18.80;97.30;;;;;;4972597;28;20174;-84
2021/07/08 05:32:09;;;;;;;12.20;6.80;;;18.80;97.30;;;;;;4967819;28;20444;-84
2021/07/08 05:34:34;;;;;;;19.73;7.47;;;18.80;97.30;;;;;;4962008;28;20426;-82
2021/07/08 05:37:00;;;;;;;16.30;6.57;;;18.80;97.30;;;;;;4968323;28;20248;-82
2021/07/08 05:39:26;;;;;;;13.47;7.40;;;18.80;97.30;;;;;;4969074;28;20178;-82
2021/07/08 05:41:51;;;;;;;10.13;6.03;;;18.80;97.30;;;;;;4966573;28;20237;-81
2021/07/08 05:44:17;;;;;;;16.13;6.97;;;18.80;97.30;;;;;;4967636;28;20289;-83
2021/07/08 05:46:42;;;;;;;10.87;7.27;;;18.90;97.30;;;;;;4972037;28;20202;-83
2021/07/08 05:49:08;;;;;;;14.77;6.90;;;18.90;97.30;;;;;;4976505;28;20178;-83
2021/07/08 05:51:33;;;;;;;13.13;6.60;;;19.00;97.30;;;;;;4962278;28;20202;-84
2021/07/08 05:54:00;;;;;;;35.47;7.43;;;19.00;97.30;;;;;;4956531;28;20186;-83
2021/07/08 05:56:27;;;;;;;16.30;7.10;;;19.00;97.30;;;;;;4969245;28;20181;-83
2021/07/08 05:58:53;;;;;;;18.87;7.43;;;19.00;97.30;;;;;;4976470;28;20417;-84
2021/07/08 06:01:20;;;;;;;19.80;7.40;;;19.00;97.30;;;;;;4976986;28;20452;-83
2021/07/08 06:06:33;;;;;;;17.23;8.03;;;18.90;97.30;;;;;;5027602;28;20831;-84
2021/07/08 06:09:03;;;;;;;16.93;7.33;;;18.90;97.30;;;;;;5009258;28;20485;-83
2021/07/08 06:11:29;;;;;;;14.17;7.20;;;18.90;97.30;;;;;;5004339;28;20513;-84
2021/07/08 06:13:55;;;;;;;13.90;7.80;;;18.90;97.30;;;;;;4998369;28;21011;-84
2021/07/08 06:16:20;;;;;;;14.27;8.43;;;18.90;97.30;;;;;;5015119;28;20471;-84
2021/07/08 06:18:46;;;;;;;13.73;6.80;;;19.00;97.30;;;;;;5030020;28;20199;-84
2021/07/08 06:21:14;;;;;;;13.13;7.43;;;19.00;97.30;;;;;;5015232;28;20201;-83
2021/07/08 06:23:43;;;;;;;17.03;7.77;;;19.10;97.30;;;;;;5018274;28;20188;-83
2021/07/08 06:26:09;;;;;;;15.80;8.40;;;19.10;97.30;;;;;;5010803;28;20464;-83
2021/07/08 06:28:35;;;;;;;11.00;8.10;;;19.10;97.30;;;;;;5003424;28;21005;-84
2021/07/08 06:31:05;;;;;;;15.00;8.37;;;19.20;97.30;;;;;;5003876;28;20232;-83
2021/07/08 06:33:32;;;;;;;11.97;8.37;;;19.30;97.30;;;;;;4997900;28;20177;-83
2021/07/08 06:35:57;;;;;;;11.90;7.33;;;19.30;97.30;;;;;;5011590;28;20447;-83
2021/07/08 06:38:23;;;;;;;13.23;6.70;;;19.30;97.30;;;;;;5018001;28;20175;-83
2021/07/08 06:40:50;;;;;;;17.03;8.30;;;19.40;97.30;;;;;;5016841;28;20214;-83
2021/07/08 06:43:16;;;;;;;12.20;7.80;;;19.40;97.30;;;;;;5016785;28;20645;-83
2021/07/08 06:45:42;;;;;;;13.40;8.70;;;19.40;97.30;;;;;;5016140;28;20423;-83
2021/07/08 06:48:12;;;;;;;9.07;6.30;;;19.40;97.30;;;;;;5016057;28;20960;-83
2021/07/08 06:50:39;;;;;;;13.43;6.70;;;19.40;97.30;;;;;;5016113;28;20200;-83
2021/07/08 06:53:05;;;;;;;9.90;7.30;;;19.50;97.30;;;;;;5017501;28;20431;-83
2021/07/08 06:55:32;;;;;;;18.53;9.20;;;19.50;97.30;;;;;;5017002;28;20937;-83
2021/07/08 06:57:58;;;;;;;12.57;8.40;;;19.50;97.30;;;;;;5015966;28;20435;-83
2021/07/08 07:00:26;;;;;;;15.50;8.10;;;19.50;97.30;;;;;;5016078;28;20439;-83
2021/07/08 07:02:56;;;;;;;17.30;8.43;;;19.50;97.30;;;;;;5017195;28;20534;-83
2021/07/08 07:05:23;;;;;;;20.30;9.30;;;19.50;97.30;;;;;;5015984;28;20993;-84
2021/07/08 07:07:49;;;;;;;18.73;10.13;;;19.50;97.30;;;;;;5015959;28;20497;-83
2021/07/08 07:10:16;;;;;;;20.97;10.30;;;19.50;97.30;;;;;;5016221;28;20466;-83
2021/07/08 07:12:46;;;;;;;17.13;6.80;;;19.50;97.30;;;;;;5016036;28;20416;-83
2021/07/08 07:15:13;;;;;;;13.43;8.97;;;19.50;97.30;;;;;;5015202;28;20941;-83
2021/07/08 07:17:40;;;;;;;14.83;9.00;;;19.60;97.30;;;;;;5016099;28;20473;-83
2021/07/08 07:20:10;;;;;;;18.67;10.93;;;19.60;97.30;;;;;;5016020;28;20837;-83
2021/07/08 07:22:37;;;;;;;13.07;8.03;;;19.60;97.30;;;;;;5015947;28;20493;-83
2021/07/08 07:25:05;;;;;;;22.13;11.70;;;19.70;97.30;;;;;;5015776;28;20423;-83
2021/07/08 07:27:31;;;;;;;11.80;7.83;;;19.70;97.30;;;;;;5015108;28;21000;-83
2021/07/08 07:29:58;;;;;;;15.83;10.53;;;19.70;97.30;;;;;;5015906;28;20546;-83
2021/07/08 07:32:23;;;;;;;14.83;10.33;;;19.80;97.30;;;;;;5016250;28;20950;-83
2021/07/08 07:34:49;;;;;;;13.43;10.70;;;19.80;97.30;;;;;;5015258;28;20458;-83
2021/07/08 07:37:14;;;;;;;19.17;10.97;;;19.80;97.30;;;;;;5015794;28;20253;-83
2021/07/08 07:39:40;;;;;;;19.00;7.43;;;19.80;97.30;;;;;;5016085;28;20601;-83
2021/07/08 07:42:05;;;;;;;12.07;9.30;;;19.80;97.30;;;;;;5016229;28;20261;-83
2021/07/08 07:44:31;;;;;;;14.00;7.43;;;19.80;97.30;;;;;;5014336;28;20219;-83
2021/07/08 07:46:57;;;;;;;15.17;8.00;;;19.90;97.30;;;;;;5015538;28;20675;-83
2021/07/08 07:49:23;;;;;;;10.80;8.63;;;19.90;97.30;;;;;;5013908;28;20199;-83
2021/07/08 07:51:49;;;;;;;12.83;9.47;;;20.00;97.30;;;;;;5016052;28;20226;-83
2021/07/08 07:54:15;;;;;;;11.30;6.50;;;20.00;97.30;;;;;;5004627;28;20426;-83
2021/07/08 07:56:40;;;;;;;17.50;9.67;;;20.10;97.30;;;;;;5016182;28;20552;-83
2021/07/08 07:59:06;;;;;;;19.27;11.13;;;20.10;97.30;;;;;;5016655;28;20275;-83
2021/07/08 08:01:32;;;;;;;14.37;9.97;;;20.10;97.30;;;;;;5017459;28;20254;-83
2021/07/08 08:03:59;;;;;;;16.23;10.67;;;20.10;97.30;;;;;;5017687;28;20203;-84
2021/07/08 08:09:13;;;;;;;13.07;8.53;;;20.10;97.30;;;;;;5035900;28;20403;-83
2021/07/08 08:11:41;;;;;;;16.00;10.57;;;20.10;97.30;;;;;;5000051;28;20448;-83
2021/07/08 08:14:07;;;;;;;13.57;9.60;;;20.20;97.30;;;;;;5005205;28;20293;-83
2021/07/08 08:16:35;;;;;;;20.00;12.40;;;20.20;97.30;;;;;;5015746;28;20450;-83
2021/07/08 08:19:00;;;;;;;22.10;12.10;;;20.20;97.30;;;;;;5016812;28;20263;-83
2021/07/08 08:21:26;;;;;;;21.60;11.90;;;20.20;97.30;;;;;;5015625;28;20466;-83
2021/07/08 08:23:51;;;;;;;15.43;11.17;;;20.20;97.30;;;;;;5015331;28;20182;-83
2021/07/08 08:26:17;;;;;;;22.23;13.10;;;20.20;97.30;;;;;;5015695;28;20214;-83
2021/07/08 08:28:43;;;;;;;21.90;12.67;;;20.20;97.30;;;;;;5015965;28;20554;-82
2021/07/08 08:31:08;;;;;;;28.97;13.20;;;20.20;97.30;;;;;;5015119;28;20258;-83
2021/07/08 08:33:34;;;;;;;12.80;8.20;;;20.20;97.30;;;;;;5015651;28;20697;-83
2021/07/08 08:36:00;;;;;;;21.67;12.30;;;20.20;97.30;;;;;;5015935;28;20204;-82
2021/07/08 08:38:25;;;;;;;20.43;12.17;;;20.20;97.30;;;;;;5016141;28;20184;-83
2021/07/08 08:40:52;;;;;;;14.53;10.80;;;20.20;97.30;;;;;;5015458;28;20575;-83
2021/07/08 08:43:18;;;;;;;18.47;11.63;;;20.30;97.30;;;;;;5015205;28;20266;-85
2021/07/08 08:45:46;;;;;;;23.67;12.20;;;20.30;97.30;;;;;;5015927;28;20411;-84
2021/07/08 08:48:12;;;;;;;19.80;11.03;;;20.30;97.30;;;;;;5015501;28;20427;-84
2021/07/08 08:50:40;;;;;;;23.67;13.40;;;20.40;97.30;;;;;;5015215;28;21005;-85
2021/07/08 08:53:07;;;;;;;16.70;9.27;;;20.40;97.30;;;;;;5015801;28;20176;-84
2021/07/08 08:55:36;;;;;;;16.27;11.63;;;20.40;97.30;;;;;;5016191;28;20502;-84
2021/07/08 08:58:06;;;;;;;20.27;11.63;;;20.40;97.30;;;;;;5033328;28;20419;-84
2021/07/08 09:00:46;;;;;;;13.87;10.60;;;20.40;97.30;;;;;;5015759;28;20514;-84
2021/07/08 09:03:20;;;;;;;14.13;9.77;;;20.40;97.30;;;;;;5016128;28;20426;-84
2021/07/08 09:06:09;;;;;;;18.87;11.07;;;20.40;97.30;;;;;;5015782;28;20831;-85
2021/07/08 09:08:53;;;;;;;17.33;11.63;;;20.40;97.30;;;;;;5015201;28;20522;-84
2021/07/08 09:11:26;;;;;;;15.13;10.50;;;20.40;97.30;;;;;;5014859;28;20451;-85
2021/07/08 09:13:56;;;;;;;13.40;10.30;;;20.50;97.30;;;;;;5015887;28;20474;-84
2021/07/08 09:16:29;;;;;;;17.10;10.77;;;20.40;97.30;;;;;;5015284;28;20443;-84
2021/07/08 09:18:59;;;;;;;22.63;11.37;;;20.40;97.30;;;;;;5014554;28;20428;-85
2021/07/08 09:21:25;;;;;;;15.50;8.93;;;20.40;97.30;;;;;;5015587;28;20470;-84
2021/07/08 09:24:13;;;;;;;14.60;9.80;;;20.30;97.30;;;;;;5015995;28;20962;-84
2021/07/08 09:26:42;;;;;;;19.13;9.40;;;20.40;97.30;;;;;;5015100;28;20977;-84
2021/07/08 09:29:18;;;;;;;17.27;9.27;;;20.30;97.30;;;;;;5015322;28;20427;-84
2021/07/08 09:31:52;;;;;;;13.80;9.90;;;20.30;97.30;;;;;;5016485;28;20446;-84
2021/07/08 09:34:21;;;;;;;11.10;8.07;;;20.40;97.30;;;;;;5015607;28;20404;-84
2021/07/08 09:36:49;;;;;;;20.53;10.23;;;20.40;97.30;;;;;;5016726;28;20433;-84
2021/07/08 09:39:15;;;;;;;19.60;10.00;;;20.50;97.30;;;;;;5019249;28;20435;-84
2021/07/08 09:41:50;;;;;;;18.00;10.03;;;20.50;97.30;;;;;;5019663;28;20435;-85
2021/07/08 09:44:24;;;;;;;16.00;9.50;;;20.50;97.30;;;;;;5019565;28;20780;-84
2021/07/08 09:46:51;;;;;;;15.70;10.87;;;20.60;97.30;;;;;;5018862;28;20449;-84
2021/07/08 09:49:17;;;;;;;10.40;8.20;;;20.50;97.30;;;;;;5019247;28;20415;-84
2021/07/08 09:51:44;;;;;;;14.67;8.80;;;20.50;97.30;;;;;;5020040;28;20442;-84
2021/07/08 09:54:25;;;;;;;12.23;8.77;;;20.40;97.30;;;;;;5019571;28;20553;-84
2021/07/08 09:56:53;;;;;;;13.93;8.20;;;20.40;97.30;;;;;;5019256;28;20414;-84
2021/07/08 09:59:21;;;;;;;14.40;9.20;;;20.30;97.30;;;;;;5019645;28;20810;-84
2021/07/08 10:01:58;;;;;;;22.17;9.33;;;20.30;97.30;;;;;;5019304;28;20439;-84
2021/07/08 10:04:24;;;;;;;12.23;7.03;;;20.30;97.30;;;;;;5018206;28;20977;-84
2021/07/08 10:06:50;;;;;;;9.67;6.23;;;20.30;97.30;;;;;;5018943;28;20997;-84
2021/07/08 10:09:18;;;;;;;12.37;7.20;;;20.30;97.30;;;;;;5037128;28;20454;-84
2021/07/08 10:11:49;;;;;;;13.37;6.50;;;20.20;97.30;;;;;;5019652;28;20791;-84
2021/07/08 10:14:19;;;;;;;11.63;7.30;;;20.20;97.30;;;;;;5018860;28;20450;-85
2021/07/08 10:16:53;;;;;;;19.60;9.80;;;20.20;97.30;;;;;;5018999;28;20852;-82
2021/07/08 10:19:21;;;;;;;16.43;10.87;;;20.20;97.30;;;;;;5019729;28;20419;-82
2021/07/08 10:21:48;;;;;;;20.93;12.97;;;20.20;97.30;;;;;;5018613;28;20427;-83
2021/07/08 10:24:15;;;;;;;15.83;9.87;;;20.20;97.30;;;;;;5018764;28;20412;-82
2021/07/08 10:26:43;;;;;;;14.87;9.90;;;20.20;97.30;;;;;;5019480;28;20454;-83
2021/07/08 10:29:11;;;;;;;17.00;8.67;;;20.20;97.30;;;;;;5018669;28;20431;-83
2021/07/08 10:31:40;;;;;;;17.17;7.70;;;20.10;97.30;;;;;;5017189;28;20931;-83
2021/07/08 10:34:14;;;;;;;12.50;8.80;;;20.10;97.30;;;;;;5018084;28;20710;-83
2021/07/08 10:36:51;;;;;;;9.50;7.60;;;20.10;97.30;;;;;;5018530;28;20415;-83
2021/07/08 10:39:22;;;;;;;27.80;8.63;;;20.00;97.30;;;;;;5018376;28;20430;-83
2021/07/08 10:41:53;;;;;;;15.20;7.70;;;20.00;97.30;;;;;;5034726;28;20813;-84
2021/07/08 10:44:34;;;;;;;11.70;7.87;;;19.90;97.30;;;;;;5018007;28;20427;-83
2021/07/08 10:47:02;;;;;;;13.50;7.90;;;20.00;97.30;;;;;;5017301;28;20801;-82
2021/07/08 10:49:38;;;;;;;22.57;7.90;;;20.00;97.30;;;;;;5016785;28;20415;-83
2021/07/08 10:52:11;;;;;;;10.43;8.37;;;20.00;97.30;;;;;;5016853;28;20986;-83
2021/07/08 10:54:52;;;;;;;23.20;10.60;;;20.00;97.30;;;;;;5018287;28;20410;-83
2021/07/08 10:57:41;;;;;;;17.97;9.27;;;20.10;97.30;;;;;;5018134;28;21117;-83
2021/07/08 11:00:51;;;;;;;10.83;8.53;;;20.10;97.30;;;;;;5016406;28;20446;-83
2021/07/08 11:03:51;;;;;;;11.57;7.73;;;20.20;97.30;;;;;;5016797;28;20793;-83
2021/07/08 11:06:31;;;;;;;8.93;7.40;;;20.30;97.30;;;;;;5016614;28;20509;-84
2021/07/08 11:09:21;;;;;;;8.90;6.83;;;20.30;97.30;;;;;;5016758;28;20439;-83
2021/07/08 11:11:51;;;;;;;7.27;5.90;;;20.30;97.30;;;;;;5015960;28;20829;-84
2021/07/08 11:14:31;;;;;;;6.87;5.77;;;20.30;97.30;;;;;;5016765;28;20458;-83
2021/07/08 11:17:12;;;;;;;7.17;6.23;;;20.30;97.30;;;;;;5016476;28;20434;-83
2021/07/08 11:19:50;;;;;;;8.60;5.60;;;20.40;97.30;;;;;;5018777;28;20425;-83
2021/07/08 11:22:21;;;;;;;11.80;6.13;;;20.40;97.30;;;;;;5018755;28;20794;-82
2021/07/08 11:25:03;;;;;;;7.70;5.83;;;20.40;97.30;;;;;;5019361;28;20517;-82
2021/07/08 11:27:51;;;;;;;5.97;4.83;;;20.50;97.30;;;;;;5019764;28;20463;-83
2021/07/08 11:30:24;;;;;;;6.90;5.03;;;20.50;97.30;;;;;;5018180;28;20407;-83
2021/07/08 11:33:04;;;;;;;7.40;6.20;;;20.50;97.30;;;;;;5018502;28;20928;-83
2021/07/08 11:35:42;;;;;;;11.17;6.93;;;20.60;97.30;;;;;;5019259;28;20992;-83
2021/07/08 11:38:20;;;;;;;8.37;7.30;;;20.70;97.30;;;;;;5019718;28;20422;-83
2021/07/08 11:40:53;;;;;;;6.57;6.00;;;20.80;97.30;;;;;;5017694;28;20510;-83
2021/07/08 11:43:23;;;;;;;8.93;6.50;;;20.80;97.30;;;;;;5017295;28;20428;-82
2021/07/08 11:45:53;;;;;;;9.23;6.53;;;20.80;97.30;;;;;;5018158;28;20791;-83
2021/07/08 11:48:42;;;;;;;9.40;6.90;;;20.80;97.30;;;;;;5016729;28;20422;-83
2021/07/08 11:51:12;;;;;;;5.60;4.57;;;20.80;97.30;;;;;;5016408;28;20442;-82
2021/07/08 11:53:42;;;;;;;6.40;5.93;;;20.80;97.30;;;;;;5017242;28;20411;-83
2021/07/08 11:56:08;;;;;;;9.40;6.20;;;20.80;97.30;;;;;;5017972;28;20422;-83
2021/07/08 11:58:34;;;;;;;7.27;5.70;;;20.80;97.30;;;;;;5015791;28;20469;-83
2021/07/08 12:01:15;;;;;;;7.23;5.73;;;20.80;97.30;;;;;;5015203;28;20525;-84
2021/07/08 12:03:51;;;;;;;9.20;6.30;;;20.80;97.30;;;;;;5013866;28;20435;-83
2021/07/08 12:06:30;;;;;;;7.10;6.53;;;20.80;97.30;;;;;;5016642;28;20498;-83
2021/07/08 12:09:13;;;;;;;7.47;6.20;;;20.70;97.30;;;;;;5015528;28;20469;-83
2021/07/08 12:11:43;;;;;;;8.90;6.47;;;20.70;97.30;;;;;;5000257;28;20454;-83
2021/07/08 12:14:14;;;;;;;7.37;5.97;;;20.70;97.30;;;;;;5016112;28;20412;-83
2021/07/08 12:16:48;;;;;;;9.20;6.70;;;20.60;97.30;;;;;;5016800;28;20806;-83
2021/07/08 12:19:28;;;;;;;7.90;6.73;;;20.50;97.30;;;;;;5015123;28;20450;-83
2021/07/08 12:21:59;;;;;;;8.03;6.40;;;20.50;97.30;;;;;;5015870;28;20890;-83
2021/07/08 12:24:34;;;;;;;7.77;5.70;;;20.50;97.30;;;;;;5015743;28;20783;-83
2021/07/08 12:27:05;;;;;;;8.83;5.33;;;20.50;97.30;;;;;;5016310;28;20839;-82
2021/07/08 12:29:33;;;;;;;7.50;6.23;;;20.50;97.30;;;;;;5014892;28;20420;-83
2021/07/08 12:32:03;;;;;;;8.20;6.37;;;20.60;97.30;;;;;;5000352;28;20507;-83
2021/07/08 12:34:53;;;;;;;7.73;6.17;;;20.50;97.30;;;;;;5016407;28;20716;-83
2021/07/08 12:37:23;;;;;;;8.43;6.20;;;20.40;97.30;;;;;;5015671;28;20477;-83
2021/07/08 12:40:04;;;;;;;10.97;6.87;;;20.30;97.30;;;;;;5015430;28;20899;-82
2021/07/08 12:42:35;;;;;;;8.93;6.17;;;20.20;97.30;;;;;;5017051;28;20435;-83
2021/07/08 12:45:05;;;;;;;12.60;6.23;;;20.10;97.30;;;;;;5016161;28;20443;-82
2021/07/08 12:47:31;;;;;;;8.60;6.33;;;20.00;97.30;;;;;;5015157;28;20454;-83
2021/07/08 12:49:58;;;;;;;6.93;5.43;;;20.00;97.30;;;;;;5032443;28;20774;-83
2021/07/08 12:52:24;;;;;;;6.47;5.87;;;19.90;97.30;;;;;;5015356;28;20246;-83
2021/07/08 12:54:50;;;;;;;12.73;6.70;;;19.90;97.30;;;;;;5014797;28;20419;-83
2021/07/08 12:57:19;;;;;;;7.70;6.53;;;20.00;97.30;;;;;;5014282;28;20779;-83
2021/07/08 13:00:07;;;;;;;9.70;6.90;;;20.00;97.30;;;;;;5014578;28;20537;-83
2021/07/08 13:02:35;;;;;;;11.90;7.33;;;20.00;97.30;;;;;;5015693;28;20509;-83
2021/07/08 13:05:08;;;;;;;6.23;5.43;;;20.10;97.30;;;;;;5032442;28;20479;-83
2021/07/08 13:07:38;;;;;;;9.03;6.73;;;20.20;97.30;;;;;;5014332;28;20525;-83
2021/07/08 13:10:07;;;;;;;9.63;8.10;;;20.30;97.30;;;;;;5014316;28;20415;-83
2021/07/08 13:12:33;;;;;;;12.50;7.83;;;20.30;97.30;;;;;;5015019;28;20435;-83
2021/07/08 13:14:59;;;;;;;10.10;7.43;;;20.30;97.30;;;;;;5015354;28;20426;-83
2021/07/08 13:17:27;;;;;;;14.40;7.43;;;20.30;97.30;;;;;;5014664;28;20184;-83
2021/07/08 13:20:10;;;;;;;10.33;7.70;;;20.30;97.30;;;;;;5015346;28;20787;-83
2021/07/08 13:22:45;;;;;;;11.07;7.40;;;20.30;97.30;;;;;;5015120;28;20461;-83
2021/07/08 13:25:22;;;;;;;45.43;12.07;;;20.40;97.30;;;;;;5015832;28;20894;-83
2021/07/08 13:28:23;;;;;;;33.27;10.07;;;20.40;97.30;;;;;;4995237;28;20498;-83
2021/07/08 13:31:12;;;;;;;9.23;7.17;;;20.40;97.30;;;;;;4996088;28;20482;-83
2021/07/08 13:33:49;;;;;;;11.93;7.17;;;20.40;97.30;;;;;;4996909;28;20478;-83
2021/07/08 13:36:33;;;;;;;10.57;8.30;;;20.20;97.30;;;;;;5002602;28;20415;-84
2021/07/08 13:39:11;;;;;;;12.70;7.63;;;20.20;97.30;;;;;;5015754;28;20410;-84
2021/07/08 13:41:51;;;;;;;8.13;6.80;;;20.10;97.30;;;;;;5017057;28;20430;-84
2021/07/08 13:44:33;;;;;;;12.77;6.43;;;20.00;97.30;;;;;;5017147;28;20417;-84
2021/07/08 13:47:11;;;;;;;7.80;6.10;;;20.00;97.30;;;;;;5015812;28;20459;-83
2021/07/08 13:50:23;;;;;;;7.87;6.43;;;20.00;97.30;;;;;;5005752;28;20824;-83
2021/07/08 13:52:52;;;;;;;7.60;6.00;;;20.00;97.30;;;;;;5014137;28;20489;-83
2021/07/08 13:55:23;;;;;;;9.43;6.90;;;20.10;97.30;;;;;;5005661;28;20428;-83
2021/07/08 13:57:49;;;;;;;9.70;7.20;;;20.10;97.30;;;;;;4994855;28;20954;-83
2021/07/08 14:00:16;;;;;;;9.40;7.13;;;20.10;97.30;;;;;;4995273;28;20495;-83
2021/07/08 14:02:41;;;;;;;13.23;7.20;;;20.10;97.30;;;;;;5013373;28;20180;-83
2021/07/08 14:05:07;;;;;;;12.97;7.67;;;20.20;97.30;;;;;;5013903;28;20467;-84
2021/07/08 14:07:33;;;;;;;11.33;7.00;;;20.20;97.30;;;;;;5012955;28;20254;-83
2021/07/08 14:09:58;;;;;;;9.77;7.63;;;20.30;97.30;;;;;;5014719;28;20958;-83
2021/07/08 14:12:24;;;;;;;12.13;7.13;;;20.30;97.30;;;;;;5014340;28;20192;-84
2021/07/08 14:14:50;;;;;;;9.20;7.17;;;20.20;97.30;;;;;;5014255;28;20219;-83
2021/07/08 14:17:15;;;;;;;10.20;7.30;;;20.20;97.30;;;;;;5010959;28;20172;-83
2021/07/08 14:19:41;;;;;;;11.93;8.00;;;20.30;97.30;;;;;;5004072;28;20203;-83
2021/07/08 14:22:07;;;;;;;7.23;5.63;;;20.30;97.30;;;;;;4996252;28;20271;-83
2021/07/08 14:24:32;;;;;;;7.53;5.73;;;20.20;97.30;;;;;;4998634;28;20185;-84
2021/07/08 14:26:58;;;;;;;10.33;5.57;;;20.20;97.30;;;;;;5008429;28;20594;-83
2021/07/08 14:29:23;;;;;;;6.70;5.80;;;20.20;97.30;;;;;;5018004;28;20521;-83
2021/07/08 14:31:49;;;;;;;9.50;6.00;;;20.20;97.30;;;;;;5017167;28;20212;-83
2021/07/08 14:34:15;;;;;;;5.17;4.87;;;20.20;97.30;;;;;;5013864;28;20191;-83
2021/07/08 14:36:40;;;;;;;6.30;4.00;;;20.20;97.30;;;;;;5018771;28;20828;-83
2021/07/08 14:39:11;;;;;;;5.00;4.10;;;20.10;97.30;;;;;;5019424;28;20184;-84
2021/07/08 14:42:00;;;;;;;;;;;;;;;;;;;;;
2021/07/08 14:44:59;;;;;;;6.37;4.53;;;20.00;97.30;;;;;;5034312;28;20412;-84
2021/07/08 14:47:33;;;;;;;4.10;3.37;;;20.00;97.30;;;;;;5016613;28;20462;-83
2021/07/08 14:50:00;;;;;;;12.63;3.87;;;20.00;97.30;;;;;;5017357;28;20806;-83
2021/07/08 14:52:34;;;;;;;4.17;3.40;;;20.00;97.30;;;;;;5015165;28;20447;-84
2021/07/08 14:55:02;;;;;;;4.60;3.20;;;20.00;97.30;;;;;;5015244;28;20519;-83
2021/07/08 14:57:33;;;;;;;5.10;3.80;;;20.00;97.30;;;;;;5016821;28;20884;-83
2021/07/08 15:00:01;;;;;;;7.37;3.80;;;20.10;97.30;;;;;;5017460;28;20481;-83
2021/07/08 15:02:41;;;;;;;5.80;3.57;;;20.10;97.30;;;;;;5016295;28;20455;-83
2021/07/08 15:05:08;;;;;;;5.63;3.60;;;20.30;97.30;;;;;;5016481;28;20487;-83
2021/07/08 15:07:34;;;;;;;4.50;3.83;;;20.40;97.30;;;;;;5016656;28;20516;-84
2021/07/08 15:09:59;;;;;;;4.80;3.97;;;20.50;97.30;;;;;;5017343;28;20415;-84
2021/07/08 15:12:28;;;;;;;6.00;5.50;;;20.50;97.30;;;;;;5023037;28;20197;-84
2021/07/08 15:14:54;;;;;;;6.53;4.80;;;20.50;97.30;;;;;;5024615;28;20230;-84
2021/07/08 15:17:19;;;;;;;9.73;4.83;;;20.60;97.30;;;;;;5017314;28;20420;-82
2021/07/08 15:19:45;;;;;;;7.13;4.87;;;20.60;97.30;;;;;;5016983;28;20191;-82
2021/07/08 15:22:10;;;;;;;6.20;4.80;;;20.70;97.30;;;;;;5015982;28;20218;-81
2021/07/08 15:24:38;;;;;;;5.77;4.80;;;20.90;97.30;;;;;;5016031;28;20196;-82
2021/07/08 15:27:04;;;;;;;6.90;4.77;;;21.20;97.30;;;;;;5016802;28;20218;-83
2021/07/08 15:29:30;;;;;;;7.33;5.47;;;21.60;97.30;;;;;;5016809;28;20419;-82
2021/07/08 15:31:55;;;;;;;6.70;4.63;;;22.10;97.30;;;;;;5016207;28;20454;-82
2021/07/08 15:34:21;;;;;;;6.40;4.70;;;22.20;97.30;;;;;;5015565;28;20180;-83
2021/07/08 15:36:51;;;;;;;4.30;3.90;;;22.20;97.30;;;;;;5016664;28;20188;-82
2021/07/08 15:39:17;;;;;;;5.70;3.53;;;22.20;97.30;;;;;;5016782;28;20667;-82
2021/07/08 15:41:43;;;;;;;6.90;3.80;;;22.10;97.30;;;;;;5015299;28;20493;-83
2021/07/08 15:44:09;;;;;;;4.67;3.53;;;22.00;97.30;;;;;;5015624;28;20434;-83
2021/07/08 15:46:38;;;;;;;3.57;3.40;;;21.80;97.30;;;;;;5016427;28;20467;-84
2021/07/08 15:49:04;;;;;;;4.27;3.03;;;21.70;97.30;;;;;;5016117;28;20895;-84
2021/07/08 15:51:29;;;;;;;7.37;3.53;;;21.50;97.30;;;;;;5015280;28;20820;-84
2021/07/08 15:53:56;;;;;;;6.40;3.53;;;21.40;97.30;;;;;;5015782;28;20411;-84
2021/07/08 15:56:22;;;;;;;5.77;3.90;;;21.30;97.30;;;;;;5015319;28;20188;-84
2021/07/08 15:58:49;;;;;;;3.40;3.20;;;21.20;97.30;;;;;;5014937;28;20484;-84
2021/07/08 16:01:14;;;;;;;8.13;3.03;;;21.20;97.30;;;;;;5015133;28;20440;-84
2021/07/08 16:03:40;;;;;;;3.40;3.03;;;21.20;97.30;;;;;;5015605;28;20750;-85
2021/07/08 16:06:10;;;;;;;5.17;3.50;;;21.20;97.30;;;;;;5016263;28;20310;-84
2021/07/08 16:08:36;;;;;;;3.63;3.00;;;21.10;97.30;;;;;;5015890;28;20427;-85
2021/07/08 16:11:02;;;;;;;7.03;4.00;;;21.10;97.30;;;;;;5015189;28;20442;-85
2021/07/08 16:13:27;;;;;;;4.40;3.50;;;21.10;97.30;;;;;;5015362;28;20731;-85
2021/07/08 16:15:53;;;;;;;3.60;2.90;;;21.10;97.30;;;;;;5016076;28;20172;-85
2021/07/08 16:18:20;;;;;;;4.00;3.30;;;21.10;97.30;;;;;;5016104;28;20191;-85
2021/07/08 16:20:47;;;;;;;4.40;3.13;;;21.00;97.30;;;;;;5014377;28;20231;-85
2021/07/08 16:23:12;;;;;;;3.50;3.30;;;21.00;97.30;;;;;;5014877;28;20454;-85
2021/07/08 16:25:38;;;;;;;6.13;3.67;;;21.00;97.30;;;;;;5015222;28;20423;-85
2021/07/08 16:28:04;;;;;;;4.07;3.30;;;21.00;97.30;;;;;;5015479;28;20204;-85
2021/07/08 16:30:30;;;;;;;4.60;3.57;;;21.00;97.30;;;;;;5014316;28;20185;-85
2021/07/08 16:32:55;;;;;;;3.47;3.30;;;21.10;97.30;;;;;;5015185;28;20255;-86
2021/07/08 16:35:21;;;;;;;4.80;3.30;;;21.00;97.30;;;;;;5015774;28;20180;-85
2021/07/08 16:37:47;;;;;;;3.23;2.93;;;21.00;97.30;;;;;;5015113;28;20182;-85
2021/07/08 16:40:14;;;;;;;4.80;3.43;;;20.90;97.30;;;;;;5014141;28;20180;-85
2021/07/08 16:42:41;;;;;;;4.00;3.37;;;20.90;97.30;;;;;;5014246;28;20236;-86
2021/07/08 16:45:10;;;;;;;3.10;2.90;;;20.80;97.30;;;;;;5016108;28;20854;-85
2021/07/08 16:47:37;;;;;;;3.50;3.10;;;20.80;97.30;;;;;;5014912;28;20444;-85
2021/07/08 16:50:07;;;;;;;2.80;2.63;;;20.70;97.30;;;;;;5003524;28;20415;-85
2021/07/08 16:52:33;;;;;;;3.70;2.93;;;20.70;97.30;;;;;;5008010;28;20479;-84